Time;durP1;ratioP1;P1;durP2;ratioP2;P2;SDS_P1;SDS_P2;PMS_P1;PMS_P2;Temp;Humidity;BMP_temperature;BMP_pressure;BME280_temperature;BME280_humidity;BME280_pressure;Samples;Min_cycle;Max_cycle;Signal;HPM_P1;HPM_P2
2024/02/25 00:00:44;;;;;;;2.57;2.40;;;15.80;55.70;;;;;;5058253;28;20545;-79
2024/02/25 00:03:12;;;;;;;3.07;2.40;;;15.80;55.80;;;;;;5063826;28;20473;-79
2024/02/25 00:05:41;;;;;;;3.43;3.07;;;15.80;55.90;;;;;;5074208;28;20434;-79
2024/02/25 00:08:11;;;;;;;2.57;2.37;;;15.80;56.00;;;;;;5061982;28;20447;-80
2024/02/25 00:10:39;;;;;;;2.60;2.23;;;15.80;55.90;;;;;;5063362;28;20576;-79
2024/02/25 00:13:07;;;;;;;2.43;2.23;;;15.80;55.80;;;;;;5063523;28;20482;-79
2024/02/25 00:15:36;;;;;;;2.90;2.60;;;15.70;55.80;;;;;;5065919;28;20484;-79
2024/02/25 00:18:04;;;;;;;3.03;2.20;;;15.70;55.80;;;;;;5059058;28;20466;-79
2024/02/25 00:20:32;;;;;;;2.40;2.20;;;15.70;56.10;;;;;;5062130;28;20436;-79
2024/02/25 00:23:00;;;;;;;2.37;2.20;;;15.70;56.00;;;;;;5071511;28;20493;-79
2024/02/25 00:25:30;;;;;;;2.27;2.07;;;15.70;56.00;;;;;;5066899;28;20470;-80
2024/02/25 00:27:58;;;;;;;2.80;2.20;;;15.70;56.00;;;;;;5067782;28;20458;-80
2024/02/25 00:30:26;;;;;;;2.23;2.03;;;15.70;56.00;;;;;;5075623;28;20461;-80
2024/02/25 00:32:54;;;;;;;2.20;2.10;;;15.70;56.20;;;;;;5063938;28;20474;-80
2024/02/25 00:35:22;;;;;;;4.00;2.20;;;15.70;56.20;;;;;;5062604;28;20469;-79
2024/02/25 00:37:50;;;;;;;3.70;2.50;;;15.70;56.20;;;;;;5060415;28;20478;-80
2024/02/25 00:40:18;;;;;;;2.50;2.30;;;15.70;56.50;;;;;;5059678;28;20439;-80
2024/02/25 00:42:47;;;;;;;2.43;2.30;;;15.70;56.40;;;;;;5064509;28;20492;-80
2024/02/25 00:45:16;;;;;;;2.20;2.10;;;15.70;56.40;;;;;;5066866;28;20464;-80
2024/02/25 02:03:51;;;;;;;1.80;1.70;;;15.20;57.90;;;;;;5040436;28;20521;-76
2024/02/25 02:10:09;;;;;;;2.10;2.00;;;15.30;58.00;;;;;;5034775;28;20499;-76
2024/02/25 02:12:41;;;;;;;2.77;2.57;;;15.30;58.10;;;;;;5033881;28;20544;-76
2024/02/25 02:15:10;;;;;;;3.40;3.10;;;15.30;58.00;;;;;;5037853;28;20470;-75
2024/02/25 02:17:40;;;;;;;5.67;4.17;;;15.30;58.00;;;;;;5039416;28;20451;-75
2024/02/25 02:20:15;;;;;;;5.53;4.77;;;15.40;58.10;;;;;;5037628;28;20452;-76
2024/02/25 02:22:45;;;;;;;6.63;5.13;;;15.40;58.10;;;;;;5036745;28;20465;-76
2024/02/25 02:25:15;;;;;;;9.60;6.17;;;15.40;58.00;;;;;;5045895;28;20482;-75
2024/02/25 02:27:43;;;;;;;12.10;7.67;;;15.40;57.90;;;;;;5059942;28;20447;-77
2024/02/25 02:30:12;;;;;;;11.53;7.20;;;15.40;57.90;;;;;;5057433;28;20443;-76
2024/02/25 02:32:40;;;;;;;14.00;8.80;;;15.40;58.10;;;;;;5044330;28;20489;-76
2024/02/25 02:35:08;;;;;;;20.60;10.70;;;15.40;58.00;;;;;;5035470;28;20455;-75
2024/02/25 02:37:36;;;;;;;16.43;10.07;;;15.40;58.00;;;;;;5047357;28;20450;-75
2024/02/25 02:40:07;;;;;;;15.70;10.03;;;15.40;58.00;;;;;;5042447;28;20512;-76
2024/02/25 02:42:35;;;;;;;19.63;10.43;;;15.40;58.10;;;;;;5040799;28;20542;-76
2024/02/25 02:45:03;;;;;;;18.90;10.97;;;15.40;58.10;;;;;;5034897;28;20459;-76
2024/02/25 02:47:32;;;;;;;19.37;11.20;;;15.40;58.10;;;;;;5041472;28;20478;-75
2024/02/25 02:50:00;;;;;;;18.63;10.97;;;15.40;58.00;;;;;;5039955;28;20458;-76
2024/02/25 02:52:28;;;;;;;19.77;10.87;;;15.40;58.10;;;;;;5040920;28;20455;-76
2024/02/25 02:54:56;;;;;;;19.33;12.30;;;15.40;58.00;;;;;;5042769;28;20909;-76
2024/02/25 02:57:25;;;;;;;17.40;11.43;;;15.40;58.10;;;;;;5034694;28;20455;-75
2024/02/25 02:59:53;;;;;;;18.20;11.10;;;15.40;58.10;;;;;;5034319;28;20448;-76
2024/02/25 03:02:22;;;;;;;20.00;11.50;;;15.40;58.10;;;;;;5033226;28;20452;-75
2024/02/25 03:04:50;;;;;;;16.73;10.90;;;15.40;58.10;;;;;;5027402;28;20497;-75
2024/02/25 03:07:18;;;;;;;17.00;10.73;;;15.40;58.10;;;;;;5033629;28;20448;-75
2024/02/25 03:09:46;;;;;;;19.00;11.27;;;15.40;58.10;;;;;;5031577;28;20497;-76
2024/02/25 03:12:14;;;;;;;19.20;10.57;;;15.40;58.00;;;;;;5033407;28;20482;-76
2024/02/25 03:14:44;;;;;;;19.87;10.67;;;15.40;58.00;;;;;;5032371;28;20475;-76
2024/02/25 03:17:12;;;;;;;15.80;9.83;;;15.40;58.10;;;;;;5029171;28;20440;-76
2024/02/25 03:19:40;;;;;;;18.23;11.37;;;15.40;58.20;;;;;;5029618;28;20475;-76
2024/02/25 03:22:09;;;;;;;17.00;10.30;;;15.40;58.00;;;;;;5032831;28;20447;-75
2024/02/25 03:24:36;;;;;;;17.77;10.20;;;15.40;58.00;;;;;;5033046;28;20436;-76
2024/02/25 03:27:05;;;;;;;16.33;9.73;;;15.40;58.10;;;;;;5028654;28;20500;-75
2024/02/25 03:29:33;;;;;;;15.43;10.00;;;15.40;58.20;;;;;;5029313;28;20451;-77
2024/02/25 03:32:03;;;;;;;16.87;9.70;;;15.40;58.00;;;;;;5033207;28;20439;-76
2024/02/25 03:34:31;;;;;;;15.63;8.80;;;15.40;58.20;;;;;;5043323;28;20498;-76
2024/02/25 03:36:59;;;;;;;15.80;9.30;;;15.40;58.20;;;;;;5032752;28;21033;-76
2024/02/25 03:39:27;;;;;;;13.97;8.80;;;15.40;58.20;;;;;;5028441;28;20447;-75
2024/02/25 03:41:55;;;;;;;14.20;9.27;;;15.40;58.00;;;;;;5032715;28;20475;-76
2024/02/25 03:44:23;;;;;;;12.93;8.87;;;15.40;57.90;;;;;;5033012;28;20530;-76
2024/02/25 03:46:51;;;;;;;12.37;8.33;;;15.40;58.10;;;;;;5031089;28;20457;-76
2024/02/25 03:49:21;;;;;;;14.17;8.87;;;15.40;58.10;;;;;;5038877;28;20467;-76
2024/02/25 03:51:49;;;;;;;14.33;8.23;;;15.40;58.00;;;;;;5037713;28;20474;-76
2024/02/25 03:54:17;;;;;;;12.40;8.20;;;15.40;57.90;;;;;;5040187;28;20503;-77
2024/02/25 03:56:45;;;;;;;13.87;7.70;;;15.40;58.10;;;;;;5046796;28;20553;-76
2024/02/25 03:59:13;;;;;;;11.17;7.67;;;15.40;58.00;;;;;;5037445;28;20454;-77
2024/02/25 04:01:41;;;;;;;12.07;8.10;;;15.40;58.00;;;;;;5036195;28;20471;-76
2024/02/25 04:04:09;;;;;;;9.70;6.77;;;15.40;58.00;;;;;;5035578;28;20509;-76
2024/02/25 04:06:38;;;;;;;11.30;7.70;;;15.40;58.00;;;;;;5032445;28;20471;-76
2024/02/25 04:09:07;;;;;;;10.00;7.00;;;15.40;58.20;;;;;;5037003;28;20949;-77
2024/02/25 04:11:35;;;;;;;11.47;7.07;;;15.40;58.10;;;;;;5025300;28;20534;-76
2024/02/25 04:14:03;;;;;;;11.60;7.40;;;15.40;58.20;;;;;;5035904;28;20475;-76
2024/02/25 04:16:31;;;;;;;12.73;7.60;;;15.40;58.10;;;;;;5041278;28;20494;-77
2024/02/25 04:19:00;;;;;;;11.63;6.43;;;15.40;58.10;;;;;;5038406;28;20471;-77
2024/02/25 04:21:28;;;;;;;9.73;6.33;;;15.40;58.20;;;;;;5036750;28;20454;-77
2024/02/25 04:23:57;;;;;;;10.37;6.70;;;15.40;58.10;;;;;;5037831;28;20463;-76
2024/02/25 04:26:25;;;;;;;11.57;6.80;;;15.40;58.00;;;;;;5032093;28;20458;-76
2024/02/25 04:28:53;;;;;;;11.87;6.43;;;15.30;58.20;;;;;;5041471;28;20447;-77
2024/02/25 04:31:21;;;;;;;8.83;6.27;;;15.30;58.20;;;;;;5034178;28;20447;-76
2024/02/25 04:33:49;;;;;;;9.40;6.27;;;15.30;58.10;;;;;;5035009;28;20482;-76
2024/02/25 04:36:18;;;;;;;8.67;5.63;;;15.30;58.20;;;;;;5031761;28;20528;-76
2024/02/25 04:38:47;;;;;;;8.30;6.00;;;15.30;58.20;;;;;;5034060;28;20542;-75
2024/02/25 04:41:17;;;;;;;6.97;5.77;;;15.30;58.20;;;;;;5031630;28;20471;-77
2024/02/25 04:43:45;;;;;;;8.07;6.00;;;15.30;58.20;;;;;;5032645;28;20442;-76
2024/02/25 04:46:13;;;;;;;7.90;5.43;;;15.30;58.30;;;;;;5039196;28;20546;-76
2024/02/25 04:48:41;;;;;;;8.57;5.47;;;15.30;58.20;;;;;;5034821;28;20892;-77
2024/02/25 04:51:10;;;;;;;7.43;5.27;;;15.30;58.10;;;;;;5031704;28;20495;-76
2024/02/25 04:53:37;;;;;;;6.90;4.87;;;15.30;58.20;;;;;;5031933;28;20503;-77
2024/02/25 04:56:05;;;;;;;7.53;5.30;;;15.30;58.20;;;;;;5031816;28;20479;-76
2024/02/25 04:58:34;;;;;;;6.23;4.70;;;15.30;58.40;;;;;;5032957;28;20549;-76
2024/02/25 05:01:02;;;;;;;7.23;5.00;;;15.20;58.30;;;;;;5035041;28;20474;-77
2024/02/25 05:03:31;;;;;;;6.27;4.90;;;15.30;58.30;;;;;;5036230;28;20853;-76
2024/02/25 05:05:59;;;;;;;6.17;4.67;;;15.30;58.60;;;;;;5025818;28;20525;-77
2024/02/25 05:08:27;;;;;;;5.40;4.40;;;15.20;58.90;;;;;;5030683;28;20448;-75
2024/02/25 05:10:55;;;;;;;5.73;4.50;;;15.30;58.40;;;;;;5030751;28;20453;-76
2024/02/25 05:13:23;;;;;;;5.53;4.50;;;15.20;58.50;;;;;;5031955;28;20453;-76
2024/02/25 05:15:57;;;;;;;6.10;3.90;;;15.20;58.60;;;;;;5037357;28;20475;-77
2024/02/25 05:18:27;;;;;;;5.60;4.27;;;15.20;58.60;;;;;;5036803;28;20473;-77
2024/02/25 05:20:55;;;;;;;6.00;4.37;;;15.20;58.60;;;;;;5037387;28;20529;-76
2024/02/25 05:23:23;;;;;;;5.93;4.60;;;15.30;58.80;;;;;;5033386;28;20506;-77
2024/02/25 05:25:51;;;;;;;6.90;4.07;;;15.20;58.70;;;;;;5031023;28;20463;-76
2024/02/25 05:28:19;;;;;;;5.87;4.43;;;15.30;58.90;;;;;;5031237;28;20470;-76
2024/02/25 05:30:46;;;;;;;4.47;3.80;;;15.30;58.70;;;;;;5034345;28;20467;-76
2024/02/25 05:33:16;;;;;;;5.17;4.40;;;15.30;58.70;;;;;;5036565;28;20491;-76
2024/02/25 05:35:43;;;;;;;4.50;3.80;;;15.30;58.70;;;;;;5038212;28;20562;-76
2024/02/25 05:38:11;;;;;;;5.47;4.23;;;15.30;58.50;;;;;;5034488;28;20431;-76
2024/02/25 05:40:42;;;;;;;4.00;3.50;;;15.30;58.70;;;;;;5037048;28;20435;-76
2024/02/25 05:43:10;;;;;;;5.60;3.60;;;15.30;58.80;;;;;;5032541;28;20473;-77
2024/02/25 05:45:39;;;;;;;4.53;3.77;;;15.30;58.70;;;;;;5039989;28;20451;-77
2024/02/25 05:48:07;;;;;;;3.60;3.07;;;15.30;58.80;;;;;;5044740;28;20860;-78
2024/02/25 05:50:37;;;;;;;5.10;4.10;;;15.30;58.70;;;;;;5051329;28;20443;-76
2024/02/25 05:53:05;;;;;;;4.23;3.83;;;15.30;58.70;;;;;;5039655;28;20439;-77
2024/02/25 05:55:33;;;;;;;4.43;3.97;;;15.30;58.70;;;;;;5033663;28;20534;-77
2024/02/25 05:58:01;;;;;;;4.03;3.67;;;15.30;58.80;;;;;;5032187;28;20531;-76
2024/02/25 06:00:29;;;;;;;4.13;3.67;;;15.30;58.70;;;;;;5032386;28;20546;-74
2024/02/25 06:02:57;;;;;;;4.50;4.10;;;15.30;58.60;;;;;;5039289;28;20510;-76
2024/02/25 06:05:30;;;;;;;3.97;3.60;;;15.30;58.60;;;;;;5034116;28;20456;-75
2024/02/25 06:08:01;;;;;;;3.83;3.43;;;15.30;59.00;;;;;;5035800;28;20448;-76
2024/02/25 06:10:29;;;;;;;4.47;3.40;;;15.30;58.60;;;;;;5036293;28;20537;-75
2024/02/25 06:12:57;;;;;;;7.40;3.90;;;15.30;58.80;;;;;;5036841;28;20435;-76
2024/02/25 06:15:25;;;;;;;3.30;3.00;;;15.30;58.60;;;;;;5040521;28;20557;-76
2024/02/25 06:17:53;;;;;;;3.13;2.93;;;15.30;58.60;;;;;;5046888;28;20497;-76
2024/02/25 06:20:21;;;;;;;5.27;3.47;;;15.30;58.70;;;;;;5034586;28;20443;-75
2024/02/25 06:22:50;;;;;;;3.73;3.13;;;15.20;58.40;;;;;;5030543;28;20458;-77
2024/02/25 06:25:19;;;;;;;3.50;3.03;;;15.30;58.50;;;;;;5037332;28;20478;-76
2024/02/25 06:27:47;;;;;;;3.20;2.90;;;15.30;58.50;;;;;;5036812;28;20440;-76
2024/02/25 06:30:15;;;;;;;3.27;2.97;;;15.20;58.50;;;;;;5038538;28;20439;-77
2024/02/25 06:32:44;;;;;;;3.20;2.67;;;15.20;58.50;;;;;;5034827;28;20431;-76
2024/02/25 06:35:13;;;;;;;3.43;2.80;;;15.20;58.40;;;;;;5044953;28;20474;-77
2024/02/25 06:37:41;;;;;;;4.00;2.63;;;15.20;58.50;;;;;;5036600;28;20479;-76
2024/02/25 06:40:10;;;;;;;2.77;2.50;;;15.20;58.40;;;;;;5041640;28;20447;-76
2024/02/25 06:42:39;;;;;;;3.80;2.90;;;15.20;58.50;;;;;;5043134;28;20537;-77
2024/02/25 06:45:08;;;;;;;3.20;2.90;;;15.20;58.50;;;;;;5036053;28;20490;-76
2024/02/25 06:47:37;;;;;;;3.37;3.07;;;15.30;58.60;;;;;;5039510;28;20446;-76
2024/02/25 06:50:06;;;;;;;2.70;2.50;;;15.20;58.60;;;;;;5032564;28;20443;-76
2024/02/25 06:52:36;;;;;;;3.00;2.53;;;15.30;58.60;;;;;;5033675;28;20448;-76
2024/02/25 06:55:07;;;;;;;2.63;2.43;;;15.30;58.60;;;;;;5034379;28;20482;-77
2024/02/25 06:57:35;;;;;;;3.10;2.57;;;15.30;58.60;;;;;;5034154;28;20486;-76
2024/02/25 07:00:07;;;;;;;2.70;2.50;;;15.30;58.60;;;;;;5034061;28;20447;-76
2024/02/25 07:02:36;;;;;;;3.43;2.43;;;15.30;58.40;;;;;;5039653;28;20451;-76
2024/02/25 07:05:05;;;;;;;3.23;2.87;;;15.30;58.50;;;;;;5028070;28;20466;-76
2024/02/25 07:07:33;;;;;;;2.80;2.60;;;15.30;58.50;;;;;;5031296;28;20526;-76
2024/02/25 07:10:00;;;;;;;2.53;2.33;;;15.30;58.40;;;;;;5041129;28;20440;-76
2024/02/25 07:12:28;;;;;;;5.53;2.40;;;15.30;58.40;;;;;;5030000;28;20444;-76
2024/02/25 07:14:56;;;;;;;2.53;2.33;;;15.30;58.40;;;;;;5032988;28;20471;-77
2024/02/25 07:17:25;;;;;;;2.30;2.20;;;15.30;58.50;;;;;;5037093;28;20490;-77
2024/02/25 07:19:53;;;;;;;2.57;2.37;;;15.30;58.40;;;;;;5034373;28;20436;-78
2024/02/25 07:22:22;;;;;;;3.07;2.40;;;15.40;58.50;;;;;;5030712;28;20444;-74
2024/02/25 07:24:50;;;;;;;2.30;1.97;;;15.40;58.40;;;;;;5032899;28;20559;-76
2024/02/25 07:27:18;;;;;;;4.00;2.13;;;15.40;58.50;;;;;;5033286;28;20443;-77
2024/02/25 07:29:46;;;;;;;2.27;2.10;;;15.40;58.60;;;;;;5035180;28;20447;-76
2024/02/25 07:32:14;;;;;;;2.20;2.10;;;15.40;58.40;;;;;;5032894;28;20520;-76
2024/02/25 07:34:44;;;;;;;2.53;2.33;;;15.40;58.50;;;;;;5031315;28;20501;-76
2024/02/25 07:37:12;;;;;;;2.13;2.03;;;15.40;58.40;;;;;;5027403;28;20459;-77
2024/02/25 07:39:40;;;;;;;2.20;2.00;;;15.40;58.50;;;;;;5032760;28;20454;-76
2024/02/25 07:42:08;;;;;;;2.53;2.33;;;15.40;58.50;;;;;;5028733;28;20531;-76
2024/02/25 07:44:36;;;;;;;5.73;2.20;;;15.40;58.50;;;;;;5031216;28;20454;-76
2024/02/25 07:47:04;;;;;;;3.67;2.13;;;15.50;58.50;;;;;;5025407;28;20448;-77
2024/02/25 07:49:32;;;;;;;1.90;1.80;;;15.50;58.50;;;;;;5029591;28;20474;-76
2024/02/25 07:52:01;;;;;;;2.27;2.17;;;15.50;58.20;;;;;;5033316;28;20505;-77
2024/02/25 07:54:29;;;;;;;2.30;2.10;;;15.50;58.40;;;;;;5032922;28;20451;-76
2024/02/25 07:56:57;;;;;;;1.77;1.67;;;15.50;58.30;;;;;;5037582;28;20463;-77
2024/02/25 07:59:26;;;;;;;2.17;1.97;;;15.60;58.40;;;;;;5028095;28;20949;-77
2024/02/25 08:01:56;;;;;;;2.27;1.90;;;15.60;58.30;;;;;;5032720;28;20497;-77
2024/02/25 08:04:24;;;;;;;1.67;1.57;;;15.70;58.30;;;;;;5038790;28;20451;-77
2024/02/25 08:06:52;;;;;;;2.07;1.87;;;15.70;58.30;;;;;;5032149;28;20444;-76
2024/02/25 08:09:22;;;;;;;1.70;1.60;;;15.70;58.10;;;;;;5032800;28;20443;-76
2024/02/25 08:11:50;;;;;;;2.20;2.00;;;15.70;58.10;;;;;;5029389;28;20482;-76
2024/02/25 08:14:20;;;;;;;2.00;1.90;;;15.70;58.00;;;;;;5034630;28;20475;-76
2024/02/25 08:16:48;;;;;;;2.07;1.97;;;15.80;57.90;;;;;;5032734;28;20990;-77
2024/02/25 08:19:16;;;;;;;2.00;1.90;;;15.90;58.00;;;;;;5027430;28;20487;-77
2024/02/25 08:21:45;;;;;;;2.00;1.87;;;15.90;57.90;;;;;;5032250;28;20447;-77
2024/02/25 08:24:13;;;;;;;1.83;1.73;;;16.00;58.00;;;;;;5031759;28;20451;-77
2024/02/25 08:26:42;;;;;;;1.70;1.60;;;16.10;57.80;;;;;;5031568;28;20468;-76
2024/02/25 08:29:10;;;;;;;1.73;1.63;;;16.20;57.70;;;;;;5032262;28;20444;-76
2024/02/25 08:31:40;;;;;;;1.87;1.77;;;16.30;57.60;;;;;;5034974;28;20505;-75
2024/02/25 08:34:08;;;;;;;1.70;1.60;;;16.30;57.50;;;;;;5033820;28;20443;-77
2024/02/25 08:36:37;;;;;;;1.50;1.40;;;16.40;57.50;;;;;;5031818;28;20517;-76
2024/02/25 08:39:05;;;;;;;1.50;1.40;;;16.50;57.40;;;;;;5033458;28;20555;-76
2024/02/25 08:41:33;;;;;;;1.97;1.87;;;16.50;57.30;;;;;;5029861;28;20436;-76
2024/02/25 08:44:02;;;;;;;3.23;1.47;;;16.50;57.10;;;;;;5025354;28;20439;-76
2024/02/25 08:46:30;;;;;;;2.97;1.50;;;16.60;57.20;;;;;;5031893;28;20543;-75
2024/02/25 08:48:58;;;;;;;1.70;1.60;;;16.60;57.20;;;;;;5031813;28;20509;-76
2024/02/25 08:51:26;;;;;;;1.40;1.30;;;16.60;57.00;;;;;;5024223;28;20468;-77
2024/02/25 08:53:54;;;;;;;4.93;1.40;;;16.70;57.00;;;;;;5031532;28;20450;-77
2024/02/25 08:56:22;;;;;;;1.60;1.50;;;16.80;57.00;;;;;;5031488;28;20490;-75
2024/02/25 08:58:51;;;;;;;1.97;1.80;;;16.80;57.00;;;;;;5034198;28;20473;-77
2024/02/25 09:01:21;;;;;;;1.40;1.40;;;16.80;56.80;;;;;;5038052;28;20443;-76
2024/02/25 09:03:49;;;;;;;3.70;1.73;;;16.90;56.90;;;;;;5036635;28;20443;-76
2024/02/25 09:06:20;;;;;;;1.53;1.43;;;16.90;56.90;;;;;;5049123;28;20459;-77
2024/02/25 09:08:48;;;;;;;1.67;1.57;;;17.00;57.00;;;;;;5060564;28;20420;-76
2024/02/25 09:11:16;;;;;;;2.27;2.00;;;17.00;56.70;;;;;;5047080;28;20436;-76
2024/02/25 09:13:44;;;;;;;2.00;1.80;;;17.00;56.70;;;;;;5026558;28;20450;-77
2024/02/25 09:16:12;;;;;;;1.40;1.30;;;16.90;56.60;;;;;;5034162;28;20471;-80
2024/02/25 09:18:41;;;;;;;1.70;1.60;;;16.90;56.70;;;;;;5031811;28;20459;-77
2024/02/25 09:21:10;;;;;;;1.27;1.23;;;17.00;56.80;;;;;;5032171;28;21011;-76
2024/02/25 09:23:42;;;;;;;1.37;1.33;;;17.00;56.90;;;;;;5038874;28;20989;-75
2024/02/25 09:26:10;;;;;;;2.50;1.40;;;17.00;56.90;;;;;;5041351;28;20523;-77
2024/02/25 09:28:46;;;;;;;2.30;1.53;;;17.10;56.70;;;;;;5039177;28;20446;-77
2024/02/25 09:31:18;;;;;;;1.30;1.20;;;17.10;56.70;;;;;;5033478;28;20472;-78
2024/02/25 09:33:49;;;;;;;2.47;1.30;;;17.10;56.60;;;;;;5032985;28;20483;-78
2024/02/25 09:36:23;;;;;;;1.43;1.43;;;17.10;56.40;;;;;;5031417;28;20534;-77
2024/02/25 09:38:51;;;;;;;1.50;1.40;;;17.10;56.60;;;;;;5030692;28;20447;-78
2024/02/25 09:41:21;;;;;;;1.20;1.20;;;17.10;56.40;;;;;;5027608;28;20455;-78
2024/02/25 09:43:51;;;;;;;2.00;1.80;;;17.10;56.40;;;;;;5029744;28;20471;-78
2024/02/25 09:46:19;;;;;;;2.20;1.47;;;17.00;56.40;;;;;;5036892;28;20563;-78
2024/02/25 09:48:52;;;;;;;1.73;1.63;;;17.00;56.50;;;;;;5029603;28;20490;-77
2024/02/25 09:51:21;;;;;;;1.50;1.40;;;17.00;56.60;;;;;;5035843;28;20443;-78
2024/02/25 09:53:50;;;;;;;1.80;1.70;;;17.00;56.50;;;;;;5036463;28;20883;-78
2024/02/25 09:56:18;;;;;;;1.50;1.50;;;17.00;56.60;;;;;;5036186;28;20479;-77
2024/02/25 09:58:46;;;;;;;1.47;1.40;;;16.90;56.70;;;;;;5027838;28;20483;-76
2024/02/25 10:01:14;;;;;;;1.57;1.47;;;16.90;56.60;;;;;;5028538;28;20482;-76
2024/02/25 10:03:42;;;;;;;3.30;1.50;;;17.00;56.80;;;;;;5030076;28;20471;-76
2024/02/25 10:06:12;;;;;;;1.30;1.30;;;17.10;56.90;;;;;;5021338;28;20499;-77
2024/02/25 10:08:48;;;;;;;2.00;1.80;;;17.10;56.60;;;;;;5039264;28;20427;-76
2024/02/25 10:11:16;;;;;;;3.03;1.60;;;17.20;56.30;;;;;;5027890;28;20451;-75
2024/02/25 10:13:45;;;;;;;1.40;1.40;;;17.20;56.10;;;;;;5034269;28;20443;-76
2024/02/25 10:16:17;;;;;;;2.00;1.55;;;17.20;56.10;;;;;;5034326;28;20473;-76
2024/02/25 10:18:46;;;;;;;1.77;1.30;;;17.20;56.10;;;;;;5034194;28;20471;-76
2024/02/25 10:21:16;;;;;;;2.07;1.70;;;17.10;55.90;;;;;;5033310;28;20455;-77
2024/02/25 10:23:44;;;;;;;1.77;1.67;;;17.10;55.80;;;;;;5035098;28;20546;-76
2024/02/25 10:26:13;;;;;;;1.60;1.50;;;17.10;55.90;;;;;;5027844;28;20466;-76
2024/02/25 10:28:42;;;;;;;1.37;1.30;;;17.10;56.00;;;;;;5030102;28;20448;-77
2024/02/25 10:31:10;;;;;;;2.40;1.60;;;17.00;55.90;;;;;;5036318;28;20490;-78
2024/02/25 10:33:39;;;;;;;1.67;1.57;;;17.00;56.10;;;;;;5033689;28;20486;-79
2024/02/25 10:36:08;;;;;;;1.80;1.70;;;16.90;56.10;;;;;;5037306;28;20549;-76
2024/02/25 10:38:38;;;;;;;2.07;1.70;;;17.00;56.20;;;;;;5039289;28;20573;-77
2024/02/25 10:41:07;;;;;;;1.57;1.47;;;17.00;56.10;;;;;;5035266;28;20447;-79
2024/02/25 10:43:36;;;;;;;1.60;1.50;;;16.90;56.10;;;;;;5034957;28;20439;-78
2024/02/25 10:46:08;;;;;;;3.33;1.40;;;17.00;56.20;;;;;;5038647;28;20541;-77
2024/02/25 10:48:36;;;;;;;2.00;1.30;;;17.00;56.20;;;;;;5028780;28;20444;-78
2024/02/25 10:51:05;;;;;;;1.60;1.50;;;17.00;56.20;;;;;;5031764;28;20448;-77
2024/02/25 10:53:33;;;;;;;2.20;1.57;;;17.00;56.50;;;;;;5041368;28;20530;-77
2024/02/25 10:56:03;;;;;;;1.13;1.10;;;16.90;56.50;;;;;;5028154;28;20467;-78
2024/02/25 10:58:30;;;;;;;1.60;1.50;;;17.00;56.50;;;;;;5033389;28;20509;-77
2024/02/25 11:00:58;;;;;;;2.57;1.40;;;17.00;56.40;;;;;;5035066;28;20860;-77
2024/02/25 11:03:27;;;;;;;2.10;1.53;;;17.00;56.40;;;;;;5035223;28;20542;-77
2024/02/25 11:05:57;;;;;;;2.60;1.10;;;17.00;56.60;;;;;;5033596;28;20478;-77
2024/02/25 11:08:29;;;;;;;1.50;1.40;;;17.00;56.70;;;;;;5031965;28;20542;-76
2024/02/25 11:10:58;;;;;;;1.77;1.60;;;17.00;56.60;;;;;;5031679;28;20458;-77
2024/02/25 11:13:28;;;;;;;1.80;1.10;;;17.00;56.50;;;;;;5028839;28;20444;-76
2024/02/25 11:15:56;;;;;;;1.60;1.50;;;17.10;56.50;;;;;;5037304;28;20494;-76
2024/02/25 11:18:26;;;;;;;1.60;1.50;;;17.10;56.50;;;;;;5044842;28;20529;-77
2024/02/25 11:21:12;;;;;;;1.47;1.37;;;17.10;56.50;;;;;;5048237;28;20484;-79
2024/02/25 11:23:41;;;;;;;1.60;1.50;;;17.10;56.50;;;;;;5044857;28;20474;-80
2024/02/25 11:26:37;;;;;;;2.10;2.00;;;17.20;56.70;;;;;;5039507;28;20522;-77
2024/02/25 11:29:20;;;;;;;1.77;1.67;;;17.20;56.50;;;;;;5035124;28;20454;-77
2024/02/25 11:31:51;;;;;;;1.70;1.60;;;17.20;56.40;;;;;;5027090;28;20443;-76
2024/02/25 11:34:24;;;;;;;1.97;1.87;;;17.20;56.50;;;;;;5028587;28;20505;-76
2024/02/25 11:36:53;;;;;;;2.37;2.17;;;17.20;56.60;;;;;;5031352;28;20456;-76
2024/02/25 11:39:25;;;;;;;2.37;2.17;;;17.40;56.80;;;;;;5029863;28;20526;-78
2024/02/25 11:41:55;;;;;;;2.43;2.23;;;17.50;56.90;;;;;;5032810;28;20504;-76
2024/02/25 11:44:25;;;;;;;2.80;2.60;;;17.70;56.40;;;;;;5038135;28;20439;-77
2024/02/25 11:46:56;;;;;;;4.00;2.60;;;17.70;56.10;;;;;;5026268;28;20503;-77
2024/02/25 11:49:24;;;;;;;2.67;2.50;;;17.80;55.80;;;;;;5020519;28;20498;-77
2024/02/25 11:51:52;;;;;;;3.03;2.83;;;17.80;56.00;;;;;;5032213;28;20456;-76
2024/02/25 11:54:20;;;;;;;3.07;2.87;;;18.00;55.60;;;;;;5031443;28;20448;-76
2024/02/25 11:56:49;;;;;;;2.50;2.40;;;18.00;55.40;;;;;;5034746;28;20466;-79
2024/02/25 11:59:18;;;;;;;3.00;2.80;;;18.20;55.60;;;;;;5032360;28;20467;-76
2024/02/25 12:01:47;;;;;;;3.40;3.10;;;18.20;55.40;;;;;;5033647;28;20541;-75
2024/02/25 12:04:16;;;;;;;2.70;2.60;;;18.40;55.60;;;;;;5031836;28;20486;-76
2024/02/25 12:06:44;;;;;;;3.20;2.90;;;18.50;54.90;;;;;;5032736;28;20498;-77
2024/02/25 12:09:14;;;;;;;3.27;3.03;;;18.50;54.60;;;;;;5033360;28;20439;-76
2024/02/25 12:11:46;;;;;;;3.50;3.20;;;18.40;54.60;;;;;;5033230;28;20467;-79
2024/02/25 12:14:19;;;;;;;3.70;3.10;;;18.30;54.70;;;;;;5032737;28;20444;-78
2024/02/25 12:16:49;;;;;;;3.70;3.40;;;18.10;54.60;;;;;;5032415;28;20499;-76
2024/02/25 12:19:18;;;;;;;3.40;3.20;;;18.10;54.80;;;;;;5032075;28;20936;-78
2024/02/25 12:21:48;;;;;;;4.47;3.37;;;18.10;54.80;;;;;;5037263;28;20779;-75
2024/02/25 12:24:16;;;;;;;3.93;3.60;;;18.10;55.00;;;;;;5027296;28;20463;-76
2024/02/25 12:26:52;;;;;;;3.80;3.50;;;18.10;54.80;;;;;;5028737;28;20468;-76
2024/02/25 12:29:20;;;;;;;3.00;2.80;;;18.00;54.80;;;;;;5053970;28;20461;-77
2024/02/25 12:31:49;;;;;;;6.50;3.30;;;17.90;55.10;;;;;;5049638;28;20478;-77
2024/02/25 12:34:17;;;;;;;3.03;2.83;;;17.90;55.20;;;;;;5048827;28;20475;-77
2024/02/25 12:36:46;;;;;;;3.23;2.90;;;17.90;55.50;;;;;;5035924;28;20460;-77
2024/02/25 12:39:18;;;;;;;3.50;3.20;;;17.90;55.60;;;;;;5034728;28;20530;-77
2024/02/25 12:41:46;;;;;;;3.50;3.30;;;17.90;55.60;;;;;;5034859;28;20477;-77
2024/02/25 12:44:13;;;;;;;4.90;3.60;;;17.90;55.70;;;;;;5034164;28;20435;-76
2024/02/25 12:46:41;;;;;;;3.20;3.00;;;17.90;55.70;;;;;;5033118;28;20474;-76
2024/02/25 12:49:12;;;;;;;2.93;2.73;;;17.90;55.60;;;;;;5032824;28;20506;-77
2024/02/25 12:51:41;;;;;;;3.73;3.30;;;17.80;55.70;;;;;;5029348;28;20447;-77
2024/02/25 12:54:10;;;;;;;3.60;3.40;;;17.80;55.80;;;;;;5030298;28;20511;-77
2024/02/25 12:56:41;;;;;;;3.67;3.37;;;17.80;56.00;;;;;;5034063;28;20475;-77
2024/02/25 12:59:10;;;;;;;3.37;3.17;;;17.80;56.10;;;;;;5039562;28;20471;-78
2024/02/25 13:01:38;;;;;;;4.40;3.60;;;17.80;56.30;;;;;;5031292;28;20467;-77
2024/02/25 13:04:07;;;;;;;4.03;3.17;;;18.00;57.00;;;;;;5026246;28;20861;-77
2024/02/25 13:06:36;;;;;;;9.80;3.23;;;18.50;56.60;;;;;;5036189;28;20997;-77
2024/02/25 13:09:06;;;;;;;3.10;2.80;;;19.50;64.80;;;;;;5030192;28;20456;-79
2024/02/25 13:11:35;;;;;;;4.00;2.90;;;21.30;60.20;;;;;;5030208;28;20538;-79
2024/02/25 13:14:03;;;;;;;10.30;3.10;;;22.70;63.70;;;;;;5035503;28;20441;-78
2024/02/25 13:16:33;;;;;;;6.60;3.40;;;23.90;55.90;;;;;;5029627;28;20430;-78
2024/02/25 13:19:01;;;;;;;21.13;4.07;;;23.70;54.70;;;;;;5032952;28;20438;-77
2024/02/25 13:21:30;;;;;;;9.43;2.87;;;23.50;55.50;;;;;;5032324;28;20466;-77
2024/02/25 13:23:59;;;;;;;8.17;3.00;;;23.50;55.30;;;;;;5032957;28;20439;-77
2024/02/25 13:26:30;;;;;;;5.20;2.73;;;23.30;55.90;;;;;;5025965;28;20464;-77
2024/02/25 13:28:59;;;;;;;4.13;2.90;;;23.30;55.90;;;;;;5033674;28;20432;-77
2024/02/25 13:31:28;;;;;;;7.90;3.10;;;23.30;56.00;;;;;;5020448;28;20782;-77
2024/02/25 13:33:56;;;;;;;4.97;3.03;;;23.60;56.80;;;;;;5035122;28;20538;-77
2024/02/25 13:36:28;;;;;;;11.50;3.03;;;23.60;55.40;;;;;;5031773;28;20475;-77
2024/02/25 13:38:57;;;;;;;4.43;3.07;;;23.50;55.10;;;;;;5025054;28;20468;-77
2024/02/25 13:41:26;;;;;;;4.00;2.63;;;23.30;55.30;;;;;;5032578;28;20448;-78
2024/02/25 13:43:54;;;;;;;5.67;2.67;;;23.20;55.60;;;;;;5033361;28;20490;-77
2024/02/25 13:46:22;;;;;;;2.53;2.30;;;23.10;55.90;;;;;;5030885;28;20494;-78
2024/02/25 13:48:51;;;;;;;3.47;2.47;;;22.90;56.20;;;;;;5033213;28;20493;-77
2024/02/25 13:51:20;;;;;;;7.10;2.70;;;22.80;56.10;;;;;;5033938;28;20455;-78
2024/02/25 13:53:48;;;;;;;2.90;2.67;;;22.60;55.80;;;;;;5035336;28;20447;-77
2024/02/25 13:56:17;;;;;;;5.53;2.97;;;22.50;56.70;;;;;;5017285;28;20557;-77
2024/02/25 13:58:46;;;;;;;8.53;2.60;;;22.50;56.70;;;;;;5037328;28;20540;-79
2024/02/25 14:01:14;;;;;;;8.73;2.87;;;22.50;56.80;;;;;;5040432;28;21028;-79
2024/02/25 14:03:42;;;;;;;4.43;2.77;;;22.40;56.80;;;;;;5038004;28;20430;-78
2024/02/25 14:06:10;;;;;;;5.30;3.00;;;22.40;56.90;;;;;;5046067;28;20477;-78
2024/02/25 14:08:39;;;;;;;5.27;2.30;;;22.40;57.10;;;;;;5041433;28;20470;-79
2024/02/25 14:11:07;;;;;;;13.33;3.00;;;22.30;57.10;;;;;;5040927;28;20447;-77
2024/02/25 14:13:35;;;;;;;6.00;2.90;;;22.30;57.20;;;;;;5039861;28;20491;-77